sensor_id;sensor_type;location;lat;lon;timestamp;temperature;humidity
29775;DHT22;16676;51.202;6.774;2023-05-31T00:00:21;21.80;56.80
29775;DHT22;16676;51.202;6.774;2023-05-31T00:04:23;21.80;57.10
29775;DHT22;16676;51.202;6.774;2023-05-31T00:08:25;21.80;57.00
29775;DHT22;16676;51.202;6.774;2023-05-31T00:12:28;21.80;57.20
29775;DHT22;16676;51.202;6.774;2023-05-31T00:16:30;21.80;56.80
29775;DHT22;16676;51.202;6.774;2023-05-31T00:20:32;21.80;58.00
29775;DHT22;16676;51.202;6.774;2023-05-31T00:24:34;21.80;57.10
29775;DHT22;16676;51.202;6.774;2023-05-31T00:28:37;21.80;56.80
29775;DHT22;16676;51.202;6.774;2023-05-31T00:32:39;21.80;57.40
29775;DHT22;16676;51.202;6.774;2023-05-31T00:36:41;21.80;57.00
29775;DHT22;16676;51.202;6.774;2023-05-31T00:40:44;21.80;57.00
29775;DHT22;16676;51.202;6.774;2023-05-31T00:44:49;21.80;57.50
29775;DHT22;16676;51.202;6.774;2023-05-31T00:48:51;21.80;57.40
29775;DHT22;16676;51.202;6.774;2023-05-31T00:52:54;21.80;57.30
29775;DHT22;16676;51.202;6.774;2023-05-31T00:56:58;21.80;56.80
29775;DHT22;16676;51.202;6.774;2023-05-31T01:01:03;21.80;57.60
29775;DHT22;16676;51.202;6.774;2023-05-31T01:05:05;21.80;57.70
29775;DHT22;16676;51.202;6.774;2023-05-31T01:09:08;21.80;57.50
29775;DHT22;16676;51.202;6.774;2023-05-31T01:13:15;21.70;57.00
29775;DHT22;16676;51.202;6.774;2023-05-31T01:17:25;21.70;56.70
29775;DHT22;16676;51.202;6.774;2023-05-31T01:21:44;21.70;57.10
29775;DHT22;16676;51.202;6.774;2023-05-31T01:26:05;21.70;57.70
29775;DHT22;16676;51.202;6.774;2023-05-31T01:30:10;21.70;57.40
29775;DHT22;16676;51.202;6.774;2023-05-31T01:34:13;21.70;57.10
29775;DHT22;16676;51.202;6.774;2023-05-31T01:38:15;21.70;57.70
29775;DHT22;16676;51.202;6.774;2023-05-31T01:42:17;21.70;58.00
29775;DHT22;16676;51.202;6.774;2023-05-31T01:46:21;21.70;58.30
29775;DHT22;16676;51.202;6.774;2023-05-31T01:50:23;21.70;58.30
29775;DHT22;16676;51.202;6.774;2023-05-31T01:54:26;21.70;56.90
29775;DHT22;16676;51.202;6.774;2023-05-31T01:58:29;21.70;57.30
29775;DHT22;16676;51.202;6.774;2023-05-31T02:02:34;21.70;56.70
29775;DHT22;16676;51.202;6.774;2023-05-31T02:06:36;21.70;56.90
29775;DHT22;16676;51.202;6.774;2023-05-31T02:10:38;21.70;56.80
29775;DHT22;16676;51.202;6.774;2023-05-31T02:14:40;21.60;57.70
29775;DHT22;16676;51.202;6.774;2023-05-31T02:18:43;21.70;57.60
29775;DHT22;16676;51.202;6.774;2023-05-31T02:22:45;21.60;56.70
29775;DHT22;16676;51.202;6.774;2023-05-31T02:26:48;21.60;57.50
29775;DHT22;16676;51.202;6.774;2023-05-31T02:30:54;21.60;56.90
29775;DHT22;16676;51.202;6.774;2023-05-31T02:34:57;21.60;57.30
29775;DHT22;16676;51.202;6.774;2023-05-31T02:38:59;21.60;57.40
29775;DHT22;16676;51.202;6.774;2023-05-31T02:43:01;21.60;57.40
29775;DHT22;16676;51.202;6.774;2023-05-31T02:47:03;21.60;56.40
29775;DHT22;16676;51.202;6.774;2023-05-31T02:51:07;21.60;57.10
29775;DHT22;16676;51.202;6.774;2023-05-31T02:55:08;21.60;56.60
29775;DHT22;16676;51.202;6.774;2023-05-31T02:59:10;21.60;57.10
29775;DHT22;16676;51.202;6.774;2023-05-31T03:03:12;21.50;56.00
29775;DHT22;16676;51.202;6.774;2023-05-31T03:07:16;21.60;57.10
29775;DHT22;16676;51.202;6.774;2023-05-31T03:11:18;21.50;56.00
29775;DHT22;16676;51.202;6.774;2023-05-31T03:15:20;21.50;56.90
29775;DHT22;16676;51.202;6.774;2023-05-31T03:19:22;21.50;56.20
29775;DHT22;16676;51.202;6.774;2023-05-31T03:23:25;21.50;56.20
29775;DHT22;16676;51.202;6.774;2023-05-31T03:27:27;21.50;56.80
29775;DHT22;16676;51.202;6.774;2023-05-31T03:31:29;21.50;57.00
29775;DHT22;16676;51.202;6.774;2023-05-31T03:35:31;21.50;57.30
29775;DHT22;16676;51.202;6.774;2023-05-31T03:39:34;21.50;56.50
29775;DHT22;16676;51.202;6.774;2023-05-31T03:43:36;21.50;57.30
29775;DHT22;16676;51.202;6.774;2023-05-31T03:47:38;21.50;56.50
29775;DHT22;16676;51.202;6.774;2023-05-31T03:51:40;21.50;56.80
29775;DHT22;16676;51.202;6.774;2023-05-31T03:55:43;21.50;56.30
29775;DHT22;16676;51.202;6.774;2023-05-31T03:59:45;21.50;56.70
29775;DHT22;16676;51.202;6.774;2023-05-31T04:03:47;21.50;57.50
29775;DHT22;16676;51.202;6.774;2023-05-31T04:07:49;21.40;56.00
29775;DHT22;16676;51.202;6.774;2023-05-31T04:11:52;21.40;57.50
29775;DHT22;16676;51.202;6.774;2023-05-31T04:15:54;21.40;56.60
29775;DHT22;16676;51.202;6.774;2023-05-31T04:19:56;21.40;57.40
29775;DHT22;16676;51.202;6.774;2023-05-31T04:23:58;21.40;57.50
29775;DHT22;16676;51.202;6.774;2023-05-31T04:28:02;21.40;55.80
29775;DHT22;16676;51.202;6.774;2023-05-31T04:32:06;21.40;56.20
29775;DHT22;16676;51.202;6.774;2023-05-31T04:36:09;21.40;56.90
29775;DHT22;16676;51.202;6.774;2023-05-31T04:40:11;21.40;58.30
29775;DHT22;16676;51.202;6.774;2023-05-31T04:44:16;21.40;57.50
29775;DHT22;16676;51.202;6.774;2023-05-31T04:48:19;21.50;58.70
29775;DHT22;16676;51.202;6.774;2023-05-31T04:52:21;21.50;59.10
29775;DHT22;16676;51.202;6.774;2023-05-31T04:56:23;21.50;59.10
29775;DHT22;16676;51.202;6.774;2023-05-31T05:00:27;21.50;57.40
29775;DHT22;16676;51.202;6.774;2023-05-31T05:04:29;21.50;57.80
29775;DHT22;16676;51.202;6.774;2023-05-31T05:08:31;21.50;57.50
29775;DHT22;16676;51.202;6.774;2023-05-31T05:12:34;21.40;57.80
29775;DHT22;16676;51.202;6.774;2023-05-31T05:16:37;21.40;57.50
29775;DHT22;16676;51.202;6.774;2023-05-31T05:20:39;21.40;56.40
29775;DHT22;16676;51.202;6.774;2023-05-31T05:24:41;21.40;56.40
29775;DHT22;16676;51.202;6.774;2023-05-31T05:28:43;21.40;57.50
29775;DHT22;16676;51.202;6.774;2023-05-31T05:32:46;21.30;56.30
29775;DHT22;16676;51.202;6.774;2023-05-31T05:36:48;21.30;55.90
29775;DHT22;16676;51.202;6.774;2023-05-31T05:40:50;21.30;57.30
29775;DHT22;16676;51.202;6.774;2023-05-31T05:44:52;21.40;55.90
29775;DHT22;16676;51.202;6.774;2023-05-31T05:48:55;21.30;55.80
29775;DHT22;16676;51.202;6.774;2023-05-31T05:52:58;21.40;57.80
29775;DHT22;16676;51.202;6.774;2023-05-31T05:57:00;21.40;56.20
29775;DHT22;16676;51.202;6.774;2023-05-31T06:01:02;21.30;55.60
29775;DHT22;16676;51.202;6.774;2023-05-31T06:05:07;21.40;56.50
29775;DHT22;16676;51.202;6.774;2023-05-31T06:09:09;21.30;55.70
29775;DHT22;16676;51.202;6.774;2023-05-31T06:13:11;21.30;55.30
29775;DHT22;16676;51.202;6.774;2023-05-31T06:17:13;21.30;55.30
29775;DHT22;16676;51.202;6.774;2023-05-31T06:21:17;21.30;55.60
29775;DHT22;16676;51.202;6.774;2023-05-31T06:25:18;21.20;55.40
29775;DHT22;16676;51.202;6.774;2023-05-31T06:29:21;21.30;55.80
29775;DHT22;16676;51.202;6.774;2023-05-31T06:33:23;21.30;55.40
29775;DHT22;16676;51.202;6.774;2023-05-31T06:37:26;21.20;55.40
29775;DHT22;16676;51.202;6.774;2023-05-31T06:41:28;21.30;55.80
29775;DHT22;16676;51.202;6.774;2023-05-31T06:45:33;21.30;55.80
29775;DHT22;16676;51.202;6.774;2023-05-31T06:49:35;21.30;55.10
29775;DHT22;16676;51.202;6.774;2023-05-31T06:53:38;21.30;55.10
29775;DHT22;16676;51.202;6.774;2023-05-31T06:57:40;21.30;55.10
29775;DHT22;16676;51.202;6.774;2023-05-31T07:01:42;21.30;54.60
29775;DHT22;16676;51.202;6.774;2023-05-31T07:05:44;21.30;54.90
29775;DHT22;16676;51.202;6.774;2023-05-31T07:09:48;21.30;54.80
29775;DHT22;16676;51.202;6.774;2023-05-31T07:13:51;21.30;54.60
29775;DHT22;16676;51.202;6.774;2023-05-31T07:17:55;21.40;55.10
29775;DHT22;16676;51.202;6.774;2023-05-31T07:21:56;21.40;54.50
29775;DHT22;16676;51.202;6.774;2023-05-31T07:26:00;21.40;54.80
29775;DHT22;16676;51.202;6.774;2023-05-31T07:30:03;21.40;54.80
29775;DHT22;16676;51.202;6.774;2023-05-31T07:34:05;21.40;54.80
29775;DHT22;16676;51.202;6.774;2023-05-31T07:38:10;21.40;54.70
29775;DHT22;16676;51.202;6.774;2023-05-31T07:42:13;21.40;54.00
29775;DHT22;16676;51.202;6.774;2023-05-31T07:46:15;21.50;54.60
29775;DHT22;16676;51.202;6.774;2023-05-31T07:50:17;21.50;53.90
29775;DHT22;16676;51.202;6.774;2023-05-31T07:54:19;21.50;54.60
29775;DHT22;16676;51.202;6.774;2023-05-31T07:58:22;21.50;53.30
29775;DHT22;16676;51.202;6.774;2023-05-31T08:02:24;21.50;55.00
29775;DHT22;16676;51.202;6.774;2023-05-31T08:06:26;21.50;53.80
29775;DHT22;16676;51.202;6.774;2023-05-31T08:10:28;21.50;53.40
29775;DHT22;16676;51.202;6.774;2023-05-31T08:14:32;21.60;55.50
29775;DHT22;16676;51.202;6.774;2023-05-31T08:18:34;21.50;53.10
29775;DHT22;16676;51.202;6.774;2023-05-31T08:22:36;21.60;53.60
29775;DHT22;16676;51.202;6.774;2023-05-31T08:26:38;21.60;53.20
29775;DHT22;16676;51.202;6.774;2023-05-31T08:30:41;21.50;52.90
29775;DHT22;16676;51.202;6.774;2023-05-31T08:34:43;21.60;52.40
29775;DHT22;16676;51.202;6.774;2023-05-31T08:38:46;21.60;52.50
29775;DHT22;16676;51.202;6.774;2023-05-31T08:42:51;21.60;52.80
29775;DHT22;16676;51.202;6.774;2023-05-31T08:47:06;21.70;53.30
29775;DHT22;16676;51.202;6.774;2023-05-31T08:51:09;21.70;52.00
29775;DHT22;16676;51.202;6.774;2023-05-31T08:55:12;21.60;51.90
29775;DHT22;16676;51.202;6.774;2023-05-31T08:59:15;21.70;51.60
29775;DHT22;16676;51.202;6.774;2023-05-31T09:03:19;21.70;51.60
29775;DHT22;16676;51.202;6.774;2023-05-31T09:07:22;21.70;51.40
29775;DHT22;16676;51.202;6.774;2023-05-31T09:11:24;21.80;53.30
29775;DHT22;16676;51.202;6.774;2023-05-31T09:15:27;21.80;52.30
29775;DHT22;16676;51.202;6.774;2023-05-31T09:19:31;21.80;52.50
29775;DHT22;16676;51.202;6.774;2023-05-31T09:23:33;21.80;51.40
29775;DHT22;16676;51.202;6.774;2023-05-31T09:27:37;21.90;52.20
29775;DHT22;16676;51.202;6.774;2023-05-31T09:31:39;21.90;51.40
29775;DHT22;16676;51.202;6.774;2023-05-31T09:35:56;21.90;51.50
29775;DHT22;16676;51.202;6.774;2023-05-31T09:39:58;22.00;52.30
29775;DHT22;16676;51.202;6.774;2023-05-31T09:44:01;21.90;52.10
29775;DHT22;16676;51.202;6.774;2023-05-31T09:48:03;22.00;50.60
29775;DHT22;16676;51.202;6.774;2023-05-31T09:52:11;22.00;50.70
29775;DHT22;16676;51.202;6.774;2023-05-31T09:56:18;22.00;47.10
29775;DHT22;16676;51.202;6.774;2023-05-31T10:00:20;22.10;49.90
29775;DHT22;16676;51.202;6.774;2023-05-31T10:04:23;22.10;47.60
29775;DHT22;16676;51.202;6.774;2023-05-31T10:08:26;22.10;47.80
29775;DHT22;16676;51.202;6.774;2023-05-31T10:12:29;22.10;47.50
29775;DHT22;16676;51.202;6.774;2023-05-31T10:16:38;22.10;48.10
29775;DHT22;16676;51.202;6.774;2023-05-31T10:20:48;22.10;48.50
29775;DHT22;16676;51.202;6.774;2023-05-31T10:25:00;22.20;49.10
29775;DHT22;16676;51.202;6.774;2023-05-31T10:29:10;22.20;48.20
29775;DHT22;16676;51.202;6.774;2023-05-31T10:33:16;22.20;48.70
29775;DHT22;16676;51.202;6.774;2023-05-31T10:37:19;22.20;48.40
29775;DHT22;16676;51.202;6.774;2023-05-31T10:41:23;22.20;47.70
29775;DHT22;16676;51.202;6.774;2023-05-31T10:45:38;22.30;46.80
29775;DHT22;16676;51.202;6.774;2023-05-31T10:49:43;22.30;46.20
29775;DHT22;16676;51.202;6.774;2023-05-31T10:53:46;22.30;47.00
29775;DHT22;16676;51.202;6.774;2023-05-31T10:57:55;22.40;45.50
29775;DHT22;16676;51.202;6.774;2023-05-31T11:01:58;22.40;47.50
29775;DHT22;16676;51.202;6.774;2023-05-31T11:06:02;22.40;47.50
29775;DHT22;16676;51.202;6.774;2023-05-31T11:10:05;22.40;47.30
29775;DHT22;16676;51.202;6.774;2023-05-31T11:14:24;22.50;47.50
29775;DHT22;16676;51.202;6.774;2023-05-31T11:18:28;22.50;47.40
29775;DHT22;16676;51.202;6.774;2023-05-31T11:22:29;22.50;46.90
29775;DHT22;16676;51.202;6.774;2023-05-31T11:26:31;22.50;46.90
29775;DHT22;16676;51.202;6.774;2023-05-31T11:30:38;22.60;47.20
29775;DHT22;16676;51.202;6.774;2023-05-31T11:34:49;22.60;47.80
29775;DHT22;16676;51.202;6.774;2023-05-31T11:38:51;22.60;46.70
29775;DHT22;16676;51.202;6.774;2023-05-31T11:42:54;22.60;47.40
29775;DHT22;16676;51.202;6.774;2023-05-31T11:47:04;22.60;47.70
29775;DHT22;16676;51.202;6.774;2023-05-31T11:51:06;22.60;47.20
29775;DHT22;16676;51.202;6.774;2023-05-31T11:55:09;22.70;46.20
29775;DHT22;16676;51.202;6.774;2023-05-31T11:59:11;22.70;46.30
29775;DHT22;16676;51.202;6.774;2023-05-31T12:03:17;22.70;45.80
29775;DHT22;16676;51.202;6.774;2023-05-31T12:07:21;22.70;45.20
29775;DHT22;16676;51.202;6.774;2023-05-31T12:11:22;22.80;45.60
29775;DHT22;16676;51.202;6.774;2023-05-31T12:15:29;22.80;46.40
29775;DHT22;16676;51.202;6.774;2023-05-31T12:19:32;22.80;45.50
29775;DHT22;16676;51.202;6.774;2023-05-31T12:23:52;22.80;45.00
29775;DHT22;16676;51.202;6.774;2023-05-31T12:27:54;22.80;44.50
29775;DHT22;16676;51.202;6.774;2023-05-31T12:32:03;22.80;46.60
29775;DHT22;16676;51.202;6.774;2023-05-31T12:36:07;22.80;44.40
29775;DHT22;16676;51.202;6.774;2023-05-31T12:40:16;22.90;46.20
29775;DHT22;16676;51.202;6.774;2023-05-31T12:44:21;22.90;45.10
29775;DHT22;16676;51.202;6.774;2023-05-31T12:48:23;22.90;45.20
29775;DHT22;16676;51.202;6.774;2023-05-31T12:52:27;22.90;44.70
29775;DHT22;16676;51.202;6.774;2023-05-31T12:56:29;22.90;44.60
29775;DHT22;16676;51.202;6.774;2023-05-31T13:00:32;23.00;43.70
29775;DHT22;16676;51.202;6.774;2023-05-31T13:04:34;23.00;44.20
29775;DHT22;16676;51.202;6.774;2023-05-31T13:08:37;23.00;43.80
29775;DHT22;16676;51.202;6.774;2023-05-31T13:12:39;23.00;44.80
29775;DHT22;16676;51.202;6.774;2023-05-31T13:16:41;23.00;44.40
29775;DHT22;16676;51.202;6.774;2023-05-31T13:20:43;23.10;44.30
29775;DHT22;16676;51.202;6.774;2023-05-31T13:24:47;23.10;43.80
29775;DHT22;16676;51.202;6.774;2023-05-31T13:28:49;23.10;43.80
29775;DHT22;16676;51.202;6.774;2023-05-31T13:32:51;23.10;43.20
29775;DHT22;16676;51.202;6.774;2023-05-31T13:36:53;23.10;43.20
29775;DHT22;16676;51.202;6.774;2023-05-31T13:40:58;23.10;44.30
29775;DHT22;16676;51.202;6.774;2023-05-31T13:45:00;23.10;44.20
29775;DHT22;16676;51.202;6.774;2023-05-31T13:49:02;23.20;42.70
29775;DHT22;16676;51.202;6.774;2023-05-31T13:53:04;23.20;44.40
29775;DHT22;16676;51.202;6.774;2023-05-31T13:57:07;23.20;44.50
29775;DHT22;16676;51.202;6.774;2023-05-31T14:01:09;23.20;43.60
29775;DHT22;16676;51.202;6.774;2023-05-31T14:05:11;23.20;43.40
29775;DHT22;16676;51.202;6.774;2023-05-31T14:09:13;23.20;44.70
29775;DHT22;16676;51.202;6.774;2023-05-31T14:13:17;23.20;44.10
29775;DHT22;16676;51.202;6.774;2023-05-31T14:17:19;23.30;43.80
29775;DHT22;16676;51.202;6.774;2023-05-31T14:21:20;23.30;43.60
29775;DHT22;16676;51.202;6.774;2023-05-31T14:25:22;23.30;42.80
29775;DHT22;16676;51.202;6.774;2023-05-31T14:29:25;23.30;44.40
29775;DHT22;16676;51.202;6.774;2023-05-31T14:33:28;23.30;44.10
29775;DHT22;16676;51.202;6.774;2023-05-31T14:37:30;23.30;42.40
29775;DHT22;16676;51.202;6.774;2023-05-31T14:41:32;23.40;44.00
29775;DHT22;16676;51.202;6.774;2023-05-31T14:45:35;23.40;43.80
29775;DHT22;16676;51.202;6.774;2023-05-31T14:49:37;23.40;42.10
29775;DHT22;16676;51.202;6.774;2023-05-31T14:53:39;23.40;43.50
29775;DHT22;16676;51.202;6.774;2023-05-31T14:57:41;23.40;43.50
29775;DHT22;16676;51.202;6.774;2023-05-31T15:01:44;23.40;43.80
29775;DHT22;16676;51.202;6.774;2023-05-31T15:05:46;23.40;42.50
29775;DHT22;16676;51.202;6.774;2023-05-31T15:09:48;23.40;43.50
29775;DHT22;16676;51.202;6.774;2023-05-31T15:13:50;23.50;44.00
29775;DHT22;16676;51.202;6.774;2023-05-31T15:17:53;23.50;42.40
29775;DHT22;16676;51.202;6.774;2023-05-31T15:21:55;23.50;43.50
29775;DHT22;16676;51.202;6.774;2023-05-31T15:25:57;23.50;43.60
29775;DHT22;16676;51.202;6.774;2023-05-31T15:29:59;23.50;44.10
29775;DHT22;16676;51.202;6.774;2023-05-31T15:34:02;23.50;44.50
29775;DHT22;16676;51.202;6.774;2023-05-31T15:38:04;23.50;44.70
29775;DHT22;16676;51.202;6.774;2023-05-31T15:42:06;23.50;44.10
29775;DHT22;16676;51.202;6.774;2023-05-31T15:46:08;23.60;44.00
29775;DHT22;16676;51.202;6.774;2023-05-31T15:50:12;23.60;44.40
29775;DHT22;16676;51.202;6.774;2023-05-31T15:54:14;23.60;45.30
29775;DHT22;16676;51.202;6.774;2023-05-31T15:58:16;23.60;45.30
29775;DHT22;16676;51.202;6.774;2023-05-31T16:02:18;23.70;44.60
29775;DHT22;16676;51.202;6.774;2023-05-31T16:06:21;23.70;44.40
29775;DHT22;16676;51.202;6.774;2023-05-31T16:10:23;23.70;46.90
29775;DHT22;16676;51.202;6.774;2023-05-31T16:14:25;23.70;46.40
29775;DHT22;16676;51.202;6.774;2023-05-31T16:18:27;23.70;45.10
29775;DHT22;16676;51.202;6.774;2023-05-31T16:22:30;23.70;45.70
29775;DHT22;16676;51.202;6.774;2023-05-31T16:26:32;23.70;45.60
29775;DHT22;16676;51.202;6.774;2023-05-31T16:30:34;23.80;45.20
29775;DHT22;16676;51.202;6.774;2023-05-31T16:34:36;23.80;44.90
29775;DHT22;16676;51.202;6.774;2023-05-31T16:38:39;23.80;45.10
29775;DHT22;16676;51.202;6.774;2023-05-31T16:42:41;23.80;45.90
29775;DHT22;16676;51.202;6.774;2023-05-31T16:46:43;23.80;45.00
29775;DHT22;16676;51.202;6.774;2023-05-31T16:50:45;23.80;45.70
29775;DHT22;16676;51.202;6.774;2023-05-31T16:54:50;23.80;46.60
29775;DHT22;16676;51.202;6.774;2023-05-31T16:58:52;23.90;45.20
29775;DHT22;16676;51.202;6.774;2023-05-31T17:02:54;23.90;45.10
29775;DHT22;16676;51.202;6.774;2023-05-31T17:06:56;23.90;45.50
29775;DHT22;16676;51.202;6.774;2023-05-31T17:10:59;23.90;45.60
29775;DHT22;16676;51.202;6.774;2023-05-31T17:15:01;23.90;45.80
29775;DHT22;16676;51.202;6.774;2023-05-31T17:19:04;23.90;45.60
29775;DHT22;16676;51.202;6.774;2023-05-31T17:23:06;23.90;48.20
29775;DHT22;16676;51.202;6.774;2023-05-31T17:27:09;23.90;46.50
29775;DHT22;16676;51.202;6.774;2023-05-31T17:31:11;23.90;47.00
29775;DHT22;16676;51.202;6.774;2023-05-31T17:35:13;24.00;47.00
29775;DHT22;16676;51.202;6.774;2023-05-31T17:39:15;23.90;47.30
29775;DHT22;16676;51.202;6.774;2023-05-31T17:43:18;24.00;49.10
29775;DHT22;16676;51.202;6.774;2023-05-31T17:47:20;24.00;47.90
29775;DHT22;16676;51.202;6.774;2023-05-31T17:51:22;24.00;47.20
29775;DHT22;16676;51.202;6.774;2023-05-31T17:55:25;24.00;47.50
29775;DHT22;16676;51.202;6.774;2023-05-31T17:59:28;24.00;47.00
29775;DHT22;16676;51.202;6.774;2023-05-31T18:03:30;24.00;47.00
29775;DHT22;16676;51.202;6.774;2023-05-31T18:07:33;24.00;47.60
29775;DHT22;16676;51.202;6.774;2023-05-31T18:11:35;24.00;48.00
29775;DHT22;16676;51.202;6.774;2023-05-31T18:15:40;24.00;48.30
29775;DHT22;16676;51.202;6.774;2023-05-31T18:19:42;24.00;48.50
29775;DHT22;16676;51.202;6.774;2023-05-31T18:23:44;24.00;48.70
29775;DHT22;16676;51.202;6.774;2023-05-31T18:27:45;24.00;47.60
29775;DHT22;16676;51.202;6.774;2023-05-31T18:31:49;24.00;47.70
29775;DHT22;16676;51.202;6.774;2023-05-31T18:36:10;24.00;47.50
29775;DHT22;16676;51.202;6.774;2023-05-31T18:40:32;24.00;47.80
29775;DHT22;16676;51.202;6.774;2023-05-31T18:44:54;24.00;48.10
29775;DHT22;16676;51.202;6.774;2023-05-31T18:49:17;24.00;48.20
29775;DHT22;16676;51.202;6.774;2023-05-31T18:53:19;24.00;48.70
29775;DHT22;16676;51.202;6.774;2023-05-31T18:57:21;24.00;47.00
29775;DHT22;16676;51.202;6.774;2023-05-31T19:01:23;24.00;47.10
29775;DHT22;16676;51.202;6.774;2023-05-31T19:05:26;24.00;48.60
29775;DHT22;16676;51.202;6.774;2023-05-31T19:09:28;24.00;48.70
29775;DHT22;16676;51.202;6.774;2023-05-31T19:13:30;24.00;47.30
29775;DHT22;16676;51.202;6.774;2023-05-31T19:17:32;23.90;47.20
29775;DHT22;16676;51.202;6.774;2023-05-31T19:21:35;23.90;47.60
29775;DHT22;16676;51.202;6.774;2023-05-31T19:25:37;23.90;48.80
29775;DHT22;16676;51.202;6.774;2023-05-31T19:29:40;23.90;48.80
29775;DHT22;16676;51.202;6.774;2023-05-31T19:33:44;23.90;46.50
29775;DHT22;16676;51.202;6.774;2023-05-31T19:37:47;23.90;46.80
29775;DHT22;16676;51.202;6.774;2023-05-31T19:41:49;23.80;47.70
29775;DHT22;16676;51.202;6.774;2023-05-31T19:45:51;23.80;46.90
29775;DHT22;16676;51.202;6.774;2023-05-31T19:49:52;23.80;47.60
29775;DHT22;16676;51.202;6.774;2023-05-31T19:53:56;23.80;46.60
29775;DHT22;16676;51.202;6.774;2023-05-31T19:57:58;23.80;47.70
29775;DHT22;16676;51.202;6.774;2023-05-31T20:02:00;23.80;47.10
29775;DHT22;16676;51.202;6.774;2023-05-31T20:06:02;23.80;47.30
29775;DHT22;16676;51.202;6.774;2023-05-31T20:10:06;23.80;46.80
29775;DHT22;16676;51.202;6.774;2023-05-31T20:14:08;23.70;47.30
29775;DHT22;16676;51.202;6.774;2023-05-31T20:18:10;23.70;47.20
29775;DHT22;16676;51.202;6.774;2023-05-31T20:22:12;23.70;48.60
29775;DHT22;16676;51.202;6.774;2023-05-31T20:26:16;23.70;48.40
29775;DHT22;16676;51.202;6.774;2023-05-31T20:30:18;23.70;47.80
29775;DHT22;16676;51.202;6.774;2023-05-31T20:34:20;23.70;49.40
29775;DHT22;16676;51.202;6.774;2023-05-31T20:38:22;23.80;48.10
29775;DHT22;16676;51.202;6.774;2023-05-31T20:42:25;23.70;48.60
29775;DHT22;16676;51.202;6.774;2023-05-31T20:46:27;23.70;48.10
29775;DHT22;16676;51.202;6.774;2023-05-31T20:50:29;23.70;48.40
29775;DHT22;16676;51.202;6.774;2023-05-31T20:54:33;23.70;48.90
29775;DHT22;16676;51.202;6.774;2023-05-31T20:58:36;23.70;48.70
29775;DHT22;16676;51.202;6.774;2023-05-31T21:02:38;23.70;48.20
29775;DHT22;16676;51.202;6.774;2023-05-31T21:06:40;23.70;49.10
29775;DHT22;16676;51.202;6.774;2023-05-31T21:10:42;23.70;47.90
29775;DHT22;16676;51.202;6.774;2023-05-31T21:14:46;23.70;48.40
29775;DHT22;16676;51.202;6.774;2023-05-31T21:18:47;23.70;48.90
29775;DHT22;16676;51.202;6.774;2023-05-31T21:22:51;23.70;48.70
29775;DHT22;16676;51.202;6.774;2023-05-31T21:26:53;23.70;49.00
29775;DHT22;16676;51.202;6.774;2023-05-31T21:30:57;23.60;48.70
29775;DHT22;16676;51.202;6.774;2023-05-31T21:34:59;23.60;48.50
29775;DHT22;16676;51.202;6.774;2023-05-31T21:39:01;23.60;48.60
29775;DHT22;16676;51.202;6.774;2023-05-31T21:43:03;23.60;48.40
29775;DHT22;16676;51.202;6.774;2023-05-31T21:47:07;23.60;48.80
29775;DHT22;16676;51.202;6.774;2023-05-31T21:51:09;23.60;48.90
29775;DHT22;16676;51.202;6.774;2023-05-31T21:55:11;23.60;48.30
29775;DHT22;16676;51.202;6.774;2023-05-31T21:59:13;23.60;49.20
29775;DHT22;16676;51.202;6.774;2023-05-31T22:03:16;23.50;48.80
29775;DHT22;16676;51.202;6.774;2023-05-31T22:07:18;23.50;49.00
29775;DHT22;16676;51.202;6.774;2023-05-31T22:11:20;23.50;49.30
29775;DHT22;16676;51.202;6.774;2023-05-31T22:15:22;23.50;48.80
29775;DHT22;16676;51.202;6.774;2023-05-31T22:19:27;23.50;49.20
29775;DHT22;16676;51.202;6.774;2023-05-31T22:23:31;23.50;48.70
29775;DHT22;16676;51.202;6.774;2023-05-31T22:27:33;23.50;48.80
29775;DHT22;16676;51.202;6.774;2023-05-31T22:31:35;23.50;48.40
29775;DHT22;16676;51.202;6.774;2023-05-31T22:35:38;23.40;48.50
29775;DHT22;16676;51.202;6.774;2023-05-31T22:39:40;23.40;49.10
29775;DHT22;16676;51.202;6.774;2023-05-31T22:43:42;23.40;49.10
29775;DHT22;16676;51.202;6.774;2023-05-31T22:47:44;23.40;49.10
29775;DHT22;16676;51.202;6.774;2023-05-31T22:51:47;23.40;49.00
29775;DHT22;16676;51.202;6.774;2023-05-31T22:55:50;23.40;49.60
29775;DHT22;16676;51.202;6.774;2023-05-31T22:59:52;23.40;49.20
29775;DHT22;16676;51.202;6.774;2023-05-31T23:03:54;23.40;49.10
29775;DHT22;16676;51.202;6.774;2023-05-31T23:07:58;23.40;49.10
29775;DHT22;16676;51.202;6.774;2023-05-31T23:12:03;23.40;50.10
29775;DHT22;16676;51.202;6.774;2023-05-31T23:16:07;23.40;49.60
29775;DHT22;16676;51.202;6.774;2023-05-31T23:20:11;23.30;49.40
29775;DHT22;16676;51.202;6.774;2023-05-31T23:24:15;23.40;49.60
29775;DHT22;16676;51.202;6.774;2023-05-31T23:28:17;23.30;49.30
29775;DHT22;16676;51.202;6.774;2023-05-31T23:32:19;23.30;49.80
29775;DHT22;16676;51.202;6.774;2023-05-31T23:36:21;23.30;49.40
29775;DHT22;16676;51.202;6.774;2023-05-31T23:40:24;23.30;49.10
29775;DHT22;16676;51.202;6.774;2023-05-31T23:44:26;23.20;49.20
29775;DHT22;16676;51.202;6.774;2023-05-31T23:48:28;23.30;49.30
29775;DHT22;16676;51.202;6.774;2023-05-31T23:52:30;23.30;50.40
29775;DHT22;16676;51.202;6.774;2023-05-31T23:56:33;23.20;49.80
